Search for airport 
image banner adimage banner adimage banner ad
image banner ad

8PN3 - Mc Cauley's

Located in Venus, United States

ICAO - 8PN3, IATA -

Data provided by Airmate  

General information

Coordinates: N41°22'60" W79°30'0"
Elevation is 1571 feet MSL.
 
View others Airports in Pennsylvania

Operational data

Special qualification required
Current time UTC:
Current local time:
Weather at : KFKL - Venango Rgnl ( 30 km )
METAR: KFKL 071256Z AUTO 01003KT 10SM -RA OVC031 04/03 A2990 RMK AO2 SLP134 P0005 T00440028
TAF: KFKL 071133Z 0712/0812 36004KT 5SM -SHRA OVC020 FM071300 31004KT 3SM -SHRA OVC010 FM072000 31007KT P6SM BKN015 FM072300 31007KT P6SM BKN025 FM080600 00000KT P6SM VCSH BKN025
View NOTAMs / SUP AIP / TFR affecting this airport [VIEW]
Communications frequencies: [VIEW]

Runways:

RWY identifierQFULength (ft)Width (ft)SurfaceLDA (ft)
011900150GRASS
191900150GRASS

Airport contact information

Address: Venus United States

Satellite view of 8PN3